Latest Coastal Weather Observations for Esperance

IDW60701

Issued at 1:22 pm WST Saturday 30 July 2016 (issued every 10 minutes, with the page automatically refreshed every 10 minutes)

About coastal observations | Map of coastal stations | Coastal observations for WA | Marine services | Other Formats
Station Details ID: 009789 Name: ESPERANCE Lat: -33.83 Lon: 121.89 Height: 25.0 m
Data from the previous 72 hours. | See also: Recent months at Esperance
Date/Time
WST
Temp
°C
Wind Pressure Rain since
9am
mm
Weather Cloud Vis
km
Sea
Height
m
Swell
Dir  Spd
kts
Gust
kts
hPa Trend Height
m
Period
s
Dir
30/01:00pm 19.2 NW 11 18 1013.1 - 0.0 - - 10 - - - -
30/12:30pm 17.9 NW 14 21 1013.6 - 0.0 - - 10 - - - -
30/12:00pm 17.6 WNW 16 22 1014.3 F 0.0 - - 10 - - - -
30/11:30am 17.5 NW 14 19 1014.7 - 0.0 - - 10 - - - -
30/11:00am 17.0 WNW 10 16 1015.1 - 0.0 - - 10 - - - -
30/10:30am 16.4 W 11 15 1015.5 - 0.0 - - 10 - - - -
30/10:00am 16.0 WNW 13 18 1015.5 - 0.0 - - 10 - - - -
30/09:30am 15.6 WNW 12 19 1015.5 - 0.0 - - 10 - - - -
30/09:00am 15.0 WNW 13 19 1015.4 R 0.0 - - 10 - - - -
30/08:30am 14.3 WNW 13 19 1015.3 - 0.0 - - 10 - - - -
30/08:00am 13.6 WNW 10 15 1015.1 - 0.0 - - 10 - - - -
30/07:30am 12.9 WNW 9 13 1014.9 - 0.0 - - 10 - - - -
30/07:00am 12.7 WNW 9 12 1014.6 - 0.0 - - 10 - - - -
30/06:30am 12.8 WNW 9 13 1014.2 - 0.0 - - 10 - - - -
30/06:00am 13.6 NW 11 14 1013.5 R 0.0 - - 10 - - - -
30/05:30am 14.7 WNW 13 23 1013.2 - 0.0 - - 10 - - - -
30/05:00am 15.2 WNW 11 17 1012.8 - 0.0 - Partly cloudy 10 - - - -
30/04:30am 15.8 W 14 21 1012.4 - 0.0 - Partly cloudy 10 - - - -
30/04:07am 15.4 W 15 25 1012.1 - 0.0 - Partly cloudy 9 - - - -
30/04:00am 15.8 WSW 14 25 1012.2 - 0.0 - Partly cloudy 10 - - - -
30/03:30am 15.7 W 11 19 1011.5 - 0.0 - Partly cloudy 10 - - - -
30/03:27am 15.7 W 12 20 1011.5 - 0.0 - Partly cloudy 10 - - - -
30/03:17am 15.7 WSW 15 25 1011.3 - 0.0 - Partly cloudy 7 - - - -
30/03:01am 18.0 WNW 17 27 1010.6 - 0.0 - Partly cloudy 10 - - - -
30/03:00am 17.9 WNW 17 24 1010.7 R 0.0 - Cloudy 10 - - - -
30/02:38am 17.9 WNW 18 28 1010.3 - 0.0 - Partly cloudy 10 - - - -
30/02:30am 17.7 WNW 16 24 1010.2 - 0.0 - Partly cloudy 10 - - - -
30/02:00am 17.9 NW 20 30 1009.8 - 0.0 - - 10 - - - -
30/01:57am 17.9 NW 19 30 1009.8 - 0.0 - - 10 - - - -
30/01:30am 17.3 NW 15 20 1009.7 - 0.0 - - 10 - - - -
30/01:00am 17.4 NW 13 18 1009.6 - 0.0 - - 10 - - - -
30/12:30am 17.7 NW 15 21 1009.3 - 0.0 - - 10 - - - -
30/12:00am 17.9 NW 15 19 1009.1 F 0.0 - - 10 - - - -
 
Date/Time
WST
Temp
°C
Wind Pressure Rain since
9am
mm
Weather Cloud Vis
km
Sea
Height
m
Swell
Dir  Spd
kts
Gust
kts
hPa Trend Height
m
Period
s
Dir
29/11:30pm 18.6 NW 18 23 1009.3 - 0.0 - - 10 - - - -
29/11:00pm 18.9 NW 15 23 1009.2 - 0.0 - - 10 - - - -
29/10:30pm 19.3 NW 16 22 1009.5 - 0.0 - - 10 - - - -
29/10:00pm 19.6 NW 20 26 1009.4 - 0.0 - - 10 - - - -
29/09:36pm 19.8 NW 17 29 1009.5 - 0.0 - - 10 - - - -
29/09:30pm 19.1 NW 14 19 1009.8 - 0.0 - - 10 - - - -
29/09:00pm 19.0 NW 16 21 1009.6 F 0.0 - - 10 - - - -
29/08:30pm 19.1 NNW 14 20 1009.5 - 0.0 - - 10 - - - -
29/08:00pm 19.1 NNW 15 21 1009.3 - 0.0 - - 10 - - - -
29/07:30pm 17.3 N 9 12 1008.9 - 0.0 - Partly cloudy 10 - - - -
29/07:00pm 17.4 N 10 14 1008.9 - 0.0 - Cloudy 10 - - - -
29/06:30pm 17.8 N 10 13 1009.0 - 0.0 - Partly cloudy 10 - - - -
29/06:00pm 18.3 N 11 15 1009.0 F 0.0 - Cloudy 10 - - - -
29/05:30pm 17.3 N 8 10 1009.2 - 0.0 - Partly cloudy 10 - - - -
29/05:00pm 18.1 N 9 12 1009.3 - 0.0 - Partly cloudy 10 - - - -
29/04:30pm 19.2 N 10 16 1009.5 - 0.0 - Cloudy 10 - - - -
29/04:00pm 20.0 N 11 17 1010.0 - 0.0 - Partly cloudy 10 - - - -
29/03:30pm 20.0 NNW 14 20 1010.3 - 0.0 - Partly cloudy 10 - - - -
29/03:00pm 20.2 NNW 14 20 1010.4 F 0.0 - Cloudy 10 - - - -
29/02:30pm 21.5 NNW 15 21 1010.4 - 0.0 - Partly cloudy 10 - - - -
29/02:00pm 22.1 NNW 10 16 1010.7 - 0.0 - Partly cloudy 10 - - - -
29/01:30pm 22.3 NNW 14 22 1010.8 - 0.0 - Partly cloudy 10 - - - -
29/01:00pm 22.3 N 9 13 1011.4 - 0.0 - Partly cloudy 10 - - - -
29/12:30pm 22.4 NNW 10 16 1012.3 - 0.0 - - 10 - - - -
29/12:00pm 22.8 NNW 9 13 1013.1 F 0.0 - Partly cloudy 10 - - - -
29/11:30am 21.3 NNE 8 10 1014.0 - 0.0 - - 10 - - - -
29/11:00am 20.3 N 8 11 1014.9 - 0.0 - - 10 - - - -
29/10:30am 19.0 NNE 9 11 1015.8 - 0.0 - - 10 - - - -
29/10:00am 16.8 NNE 6 8 1016.5 - 0.0 - - 10 - - - -
29/09:30am 14.7 NNE 4 5 1017.2 - 0.0 - - 10 - - - -
29/09:00am 13.6 NNE 4 6 1017.4 F 0.0 - - 10 - - - -
29/08:30am 11.9 NE 5 6 1017.7 - 0.0 - - 10 - - - -
29/08:00am 9.7 NE 5 6 1017.9 - 0.0 - - 10 - - - -
29/07:30am 9.7 NNE 5 5 1018.3 - 0.0 - - 10 - - - -
29/07:00am 8.7 NNE 4 4 1018.5 - 0.0 - - 10 - - - -
29/06:30am 8.4 NNE 4 5 1018.4 - 0.0 - - 10 - - - -
29/06:00am 7.9 NE 4 5 1018.4 F 0.0 - Cloudy 10 - - - -
29/05:30am 8.5 NE 3 4 1018.4 - 0.0 - - 10 - - - -
29/05:00am 7.8 NE 4 5 1018.5 - 0.0 - - 10 - - - -
29/04:30am 8.6 NNE 5 6 1018.5 - 0.0 - - 10 - - - -
29/04:00am 8.3 N 3 3 1018.6 - 0.0 - - 10 - - - -
29/03:30am 8.6 N 6 7 1018.8 - 0.0 - - 10 - - - -
29/03:00am 8.4 N 5 7 1019.3 F 0.0 - - 10 - - - -
29/02:30am 8.9 NNW 3 5 1019.5 - 0.0 - - 10 - - - -
29/02:00am 9.4 NNW 3 4 1019.7 - 0.0 - - 10 - - - -
29/01:30am 9.4 NNW 4 5 1020.2 - 0.0 - - 10 - - - -
29/01:00am 9.8 N 3 4 1020.4 - 0.0 - Partly cloudy 10 - - - -
29/12:30am 9.6 N 4 5 1020.6 - 0.0 - Partly cloudy 10 - - - -
29/12:00am 9.5 NW 5 5 1020.7 F 0.0 - Cloudy 10 - - - -
 
Date/Time
WST
Temp
°C
Wind Pressure Rain since
9am
mm
Weather Cloud Vis
km
Sea
Height
m
Swell
Dir  Spd
kts
Gust
kts
hPa Trend Height
m
Period
s
Dir
28/11:30pm 9.1 W 5 6 1021.0 - 0.0 - - 10 - - - -
28/11:00pm 10.3 WSW 5 6 1021.1 - 0.0 - - 10 - - - -
28/10:30pm 10.2 NNW 4 5 1021.2 - 0.0 - - 10 - - - -
28/10:00pm 11.7 NNW 3 3 1021.4 - 0.0 - - 10 - - - -
28/09:30pm 11.8 N 4 5 1021.6 - 0.0 - - 10 - - - -
28/09:00pm 11.4 N 6 7 1021.5 F 0.0 - Mostly clear 10 - - - -
28/08:30pm 13.2 WNW 3 4 1021.5 - 0.0 - - 10 - - - -
28/08:00pm 14.2 WSW 4 5 1021.5 - 0.0 - Partly cloudy 10 - - - -
28/07:30pm 14.5 NNW 1 3 1021.3 - 0.0 - Partly cloudy 10 - - - -
28/07:00pm 14.9 NNW 3 3 1021.3 - 0.0 - - 10 - - - -
28/06:30pm 14.9 WNW 3 4 1021.1 - 0.0 - - 10 - - - -
28/06:00pm 16.2 SSW 2 4 1020.9 F 0.0 - Cloudy 10 - - - -
28/05:30pm 16.7 NW 4 5 1021.0 - 0.0 - - 10 - - - -
28/05:00pm 17.4 NW 4 4 1020.7 - 0.0 - - 10 - - - -
28/04:30pm 19.3 NNW 3 5 1020.6 - 0.0 - - 10 - - - -
28/04:00pm 18.6 CALM 0 3 1020.5 - 0.0 - - 10 - - - -
28/03:30pm 18.7 NW 6 7 1020.4 - 0.0 - - 10 - - - -
28/03:00pm 19.3 NNW 6 8 1020.3 F 0.0 - Mostly cloudy 10 - - - -
28/02:30pm 19.6 NW 9 12 1020.3 - 0.0 - - 10 - - - -
28/02:00pm 20.4 NW 11 15 1020.5 - 0.0 - - 10 - - - -
28/01:30pm 19.9 NW 11 17 1020.8 - 0.0 - - 10 - - - -
28/01:00pm 19.2 NW 9 11 1021.1 - 0.0 - - 10 - - - -
28/12:30pm 18.8 NW 11 15 1021.4 - 0.0 - - 10 - - - -
28/12:00pm 19.9 NW 12 15 1021.6 F 0.0 - Mostly cloudy 10 - - - -
28/11:30am 19.6 NW 14 18 1022.6 - 0.0 - - 10 - - - -
28/11:00am 19.9 NW 13 18 1022.9 - 0.0 - - 10 - - - -
28/10:30am 19.0 NW 12 19 1023.4 - 0.0 - - 10 - - - -
28/10:00am 16.7 NNW 7 9 1023.7 - 0.0 - - 10 - - - -
28/09:30am 15.9 NNW 5 7 1024.0 - 0.0 - - 10 - - - -
28/09:00am 16.0 N 4 6 1024.5 F 0.0 - Partly cloudy 10 - - - -
28/08:30am 14.1 SSE 1 5 1024.5 - 0.0 - - 10 - - - -
28/08:00am 12.9 NNE 3 4 1024.2 - 0.0 - - 10 - - - -
28/07:30am 12.1 NNE 5 9 1024.1 - 0.0 - - 10 - - - -
28/07:00am 11.0 N 5 8 1024.1 - 0.0 - - 10 - - - -
28/06:30am 10.1 N 4 6 1024.2 - 0.0 - - 10 - - - -
28/06:00am 9.7 NNE 7 9 1023.7 F 0.0 - Mostly clear 10 - - - -
28/05:30am 9.2 NE 4 5 1023.7 - 0.0 - - 10 - - - -
28/05:00am 9.2 NNE 3 5 1023.4 - 0.0 - - 10 - - - -
28/04:30am 9.4 N 7 9 1023.3 - 0.0 - - 10 - - - -
28/04:00am 9.6 N 8 10 1023.4 - 0.0 - - 10 - - - -
28/03:30am 10.0 N 7 10 1023.7 - 0.0 - - 10 - - - -
28/03:00am 9.8 N 7 10 1023.9 F 0.0 - Partly cloudy 10 - - - -
28/02:30am 10.0 N 8 11 1024.0 - 0.0 - - 10 - - - -
28/02:00am 10.2 N 7 10 1024.3 - 0.0 - - 10 - - - -
28/01:30am 10.5 NNE 9 11 1024.4 - 0.0 - - 10 - - - -
28/01:00am 10.3 NNE 6 7 1024.3 - 0.0 - - 10 - - - -
28/12:30am 10.5 NE 6 8 1024.4 - 0.0 - - 10 - - - -
28/12:00am 10.2 N 5 6 1025.1 F 0.0 - Mostly cloudy 10 - - - -
 
Date/Time
WST
Temp
°C
Wind Pressure Rain since
9am
mm
Weather Cloud Vis
km
Sea
Height
m
Swell
Dir  Spd
kts
Gust
kts
hPa Trend Height
m
Period
s
Dir
27/11:30pm 10.2 N 5 7 1025.3 - 0.0 - - 10 - - - -
27/11:00pm 10.3 N 6 7 1025.5 - 0.0 - - 10 - - - -
27/10:30pm 10.4 N 4 5 1025.9 - 0.0 - - 10 - - - -
27/10:00pm 10.9 NNE 4 6 1026.0 - 0.0 - - 10 - - - -
27/09:30pm 10.6 NNE 3 4 1026.3 - 0.0 - - 10 - - - -
27/09:00pm 10.9 NE 4 5 1026.5 F 0.0 - Mostly cloudy 10 - - - -
27/08:30pm 11.1 NE 5 7 1026.5 - 0.0 - - 10 - - - -
27/08:00pm 11.6 NE 5 6 1026.6 - 0.0 - - 10 - - - -
27/07:30pm 12.3 ENE 6 7 1026.4 - 0.0 - - 10 - - - -
27/07:00pm 13.2 ENE 5 6 1026.5 - 0.0 - - 10 - - - -
27/06:41pm 13.7 E 5 6 1026.5 - 0.0 - - 7 - - - -
27/06:30pm 13.8 ESE 5 6 1026.3 - 0.0 - - 10 - - - -
27/06:00pm 13.9 SE 6 8 1026.1 F 0.0 - - 10 - - - -
27/05:30pm 14.1 SE 6 7 1025.9 - 0.0 - - 10 - - - -
27/05:00pm 14.6 SE 6 9 1026.1 - 0.0 - - 10 - - - -
27/04:30pm 15.2 SE 7 9 1026.2 - 0.0 - - 10 - - - -
27/04:00pm 15.7 SE 7 9 1025.8 - 0.0 - Partly cloudy 10 - - - -
27/03:30pm 16.9 NW 4 5 1026.1 - 0.0 - Cloudy 10 - - - -
27/03:00pm 16.7 NW 1 4 1025.9 F 0.0 - Cloudy - - - - -
27/02:30pm 16.6 NW 5 6 1026.1 - 0.0 - Mostly cloudy 10 - - - -
27/02:00pm 16.6 W 4 5 1026.1 - 0.0 - Mostly cloudy 10 - - - -
27/01:30pm 16.7 NNW 6 8 1026.3 - 0.0 - Mostly cloudy 10 - - - -

Other Formats:

Comma delimited format used in spreadsheet applications
http://www.bom.gov.au/fwo/IDW60701/IDW60701.94638.axf

JavaScript Object Notation format (JSON) in row-major order
http://www.bom.gov.au/fwo/IDW60701/IDW60701.94638.json